sensor_id;sensor_type;location;lat;lon;timestamp;pressure;altitude;pressure_sealevel;temperature;humidity
47811;BME280;33575;52.600;7.318;2023-11-21T00:00:55;100782.78;;;7.64;96.55
47811;BME280;33575;52.600;7.318;2023-11-21T00:03:26;100782.27;;;7.67;97.14
47811;BME280;33575;52.600;7.318;2023-11-21T00:05:56;100782.84;;;7.72;98.01
47811;BME280;33575;52.600;7.318;2023-11-21T00:08:27;100776.91;;;7.76;98.11
47811;BME280;33575;52.600;7.318;2023-11-21T00:10:57;100780.28;;;7.78;97.50
47811;BME280;33575;52.600;7.318;2023-11-21T00:13:27;100780.58;;;7.82;98.47
47811;BME280;33575;52.600;7.318;2023-11-21T00:15:57;100781.19;;;7.87;98.11
47811;BME280;33575;52.600;7.318;2023-11-21T00:18:27;100784.79;;;7.86;97.80
47811;BME280;33575;52.600;7.318;2023-11-21T00:20:58;100785.28;;;7.91;98.21
47811;BME280;33575;52.600;7.318;2023-11-21T00:23:28;100784.65;;;7.95;98.72
47811;BME280;33575;52.600;7.318;2023-11-21T00:25:58;100784.72;;;7.98;97.56
47811;BME280;33575;52.600;7.318;2023-11-21T00:28:29;100787.09;;;8.04;98.14
47811;BME280;33575;52.600;7.318;2023-11-21T00:30:59;100789.86;;;8.07;97.97
47811;BME280;33575;52.600;7.318;2023-11-21T00:33:30;100787.93;;;8.06;98.23
47811;BME280;33575;52.600;7.318;2023-11-21T00:36:00;100785.43;;;8.07;98.30
47811;BME280;33575;52.600;7.318;2023-11-21T00:38:30;100786.58;;;8.12;98.60
47811;BME280;33575;52.600;7.318;2023-11-21T00:41:01;100789.56;;;8.15;98.46
47811;BME280;33575;52.600;7.318;2023-11-21T00:43:31;100788.78;;;8.17;97.87
47811;BME280;33575;52.600;7.318;2023-11-21T00:46:04;100787.88;;;8.20;97.46
47811;BME280;33575;52.600;7.318;2023-11-21T00:48:33;100789.83;;;8.25;97.83
47811;BME280;33575;52.600;7.318;2023-11-21T00:51:03;100787.43;;;8.30;97.74
47811;BME280;33575;52.600;7.318;2023-11-21T00:53:34;100786.50;;;8.31;98.21
47811;BME280;33575;52.600;7.318;2023-11-21T00:56:05;100788.43;;;8.34;98.13
47811;BME280;33575;52.600;7.318;2023-11-21T00:58:35;100792.42;;;8.36;97.81
47811;BME280;33575;52.600;7.318;2023-11-21T01:01:05;100795.57;;;8.37;97.61
47811;BME280;33575;52.600;7.318;2023-11-21T01:03:35;100799.19;;;8.38;97.25
47811;BME280;33575;52.600;7.318;2023-11-21T01:06:07;100804.13;;;8.40;97.00
47811;BME280;33575;52.600;7.318;2023-11-21T01:08:36;100808.60;;;8.42;97.45
47811;BME280;33575;52.600;7.318;2023-11-21T01:11:07;100820.19;;;8.43;97.83
47811;BME280;33575;52.600;7.318;2023-11-21T01:13:37;100823.17;;;8.43;96.95
47811;BME280;33575;52.600;7.318;2023-11-21T01:16:08;100827.82;;;8.42;98.17
47811;BME280;33575;52.600;7.318;2023-11-21T01:18:38;100835.40;;;8.45;97.46
47811;BME280;33575;52.600;7.318;2023-11-21T01:21:07;100836.89;;;8.48;97.49
47811;BME280;33575;52.600;7.318;2023-11-21T01:23:38;100839.14;;;8.51;97.41
47811;BME280;33575;52.600;7.318;2023-11-21T01:26:08;100846.01;;;8.54;96.80
47811;BME280;33575;52.600;7.318;2023-11-21T01:28:39;100850.82;;;8.57;98.89
47811;BME280;33575;52.600;7.318;2023-11-21T01:31:10;100850.59;;;8.70;100.00
47811;BME280;33575;52.600;7.318;2023-11-21T01:33:40;100857.75;;;8.77;100.00
47811;BME280;33575;52.600;7.318;2023-11-21T01:36:10;100858.80;;;8.82;99.49
47811;BME280;33575;52.600;7.318;2023-11-21T01:38:41;100862.17;;;8.83;99.15
47811;BME280;33575;52.600;7.318;2023-11-21T01:41:11;100866.74;;;8.87;98.53
47811;BME280;33575;52.600;7.318;2023-11-21T01:43:42;100866.59;;;8.90;98.56
47811;BME280;33575;52.600;7.318;2023-11-21T01:46:12;100868.16;;;8.89;97.44
47811;BME280;33575;52.600;7.318;2023-11-21T01:48:42;100865.17;;;8.89;98.08
47811;BME280;33575;52.600;7.318;2023-11-21T01:51:13;100862.90;;;8.88;97.04
47811;BME280;33575;52.600;7.318;2023-11-21T01:53:44;100864.86;;;8.84;97.37
47811;BME280;33575;52.600;7.318;2023-11-21T01:56:14;100867.78;;;8.82;98.07
47811;BME280;33575;52.600;7.318;2023-11-21T01:58:45;100870.54;;;8.83;97.67
47811;BME280;33575;52.600;7.318;2023-11-21T02:01:15;100880.19;;;8.78;97.96
47811;BME280;33575;52.600;7.318;2023-11-21T02:03:45;100879.46;;;8.72;97.58
47811;BME280;33575;52.600;7.318;2023-11-21T02:06:15;100880.93;;;8.69;97.63
47811;BME280;33575;52.600;7.318;2023-11-21T02:08:45;100881.34;;;8.70;97.59
47811;BME280;33575;52.600;7.318;2023-11-21T02:11:16;100884.91;;;8.73;97.74
47811;BME280;33575;52.600;7.318;2023-11-21T02:13:46;100885.35;;;8.74;98.04
47811;BME280;33575;52.600;7.318;2023-11-21T02:16:16;100885.62;;;8.72;97.85
47811;BME280;33575;52.600;7.318;2023-11-21T02:18:47;100882.49;;;8.70;97.26
47811;BME280;33575;52.600;7.318;2023-11-21T02:21:17;100884.60;;;8.70;97.94
47811;BME280;33575;52.600;7.318;2023-11-21T02:23:48;100886.07;;;8.67;97.93
47811;BME280;33575;52.600;7.318;2023-11-21T02:26:18;100888.93;;;8.67;97.77
47811;BME280;33575;52.600;7.318;2023-11-21T02:28:49;100897.76;;;8.70;97.78
47811;BME280;33575;52.600;7.318;2023-11-21T02:31:20;100897.20;;;8.69;97.43
47811;BME280;33575;52.600;7.318;2023-11-21T02:33:50;100895.78;;;8.68;98.04
47811;BME280;33575;52.600;7.318;2023-11-21T02:36:21;100899.49;;;8.71;97.85
47811;BME280;33575;52.600;7.318;2023-11-21T02:38:52;100898.17;;;8.77;99.00
47811;BME280;33575;52.600;7.318;2023-11-21T02:41:22;100897.29;;;8.80;100.00
47811;BME280;33575;52.600;7.318;2023-11-21T02:43:52;100895.84;;;8.84;98.96
47811;BME280;33575;52.600;7.318;2023-11-21T02:46:23;100896.57;;;8.84;97.99
47811;BME280;33575;52.600;7.318;2023-11-21T02:48:54;100895.47;;;8.84;98.30
47811;BME280;33575;52.600;7.318;2023-11-21T02:51:24;100891.83;;;8.76;98.52
47811;BME280;33575;52.600;7.318;2023-11-21T02:53:55;100894.85;;;8.73;98.89
47811;BME280;33575;52.600;7.318;2023-11-21T02:56:26;100899.54;;;8.71;97.59
47811;BME280;33575;52.600;7.318;2023-11-21T02:58:56;100900.47;;;8.69;96.98
47811;BME280;33575;52.600;7.318;2023-11-21T03:01:26;100903.63;;;8.71;97.37
47811;BME280;33575;52.600;7.318;2023-11-21T03:03:56;100904.58;;;8.70;97.71
47811;BME280;33575;52.600;7.318;2023-11-21T03:06:27;100904.71;;;8.70;97.08
47811;BME280;33575;52.600;7.318;2023-11-21T03:08:57;100906.39;;;8.68;97.33
47811;BME280;33575;52.600;7.318;2023-11-21T03:11:27;100906.79;;;8.67;97.31
47811;BME280;33575;52.600;7.318;2023-11-21T03:13:57;100911.43;;;8.63;98.58
47811;BME280;33575;52.600;7.318;2023-11-21T03:16:28;100918.40;;;8.63;97.57
47811;BME280;33575;52.600;7.318;2023-11-21T03:18:59;100922.07;;;8.62;96.93
47811;BME280;33575;52.600;7.318;2023-11-21T03:21:29;100921.88;;;8.62;97.14
47811;BME280;33575;52.600;7.318;2023-11-21T03:23:59;100925.99;;;8.66;96.96
47811;BME280;33575;52.600;7.318;2023-11-21T03:26:30;100928.88;;;8.69;97.55
47811;BME280;33575;52.600;7.318;2023-11-21T03:29:01;100934.28;;;8.69;97.22
47811;BME280;33575;52.600;7.318;2023-11-21T03:31:32;100940.45;;;8.69;97.28
47811;BME280;33575;52.600;7.318;2023-11-21T03:34:01;100945.46;;;8.71;96.71
47811;BME280;33575;52.600;7.318;2023-11-21T03:36:32;100945.32;;;8.70;97.11
47811;BME280;33575;52.600;7.318;2023-11-21T03:39:02;100947.88;;;8.71;96.73
47811;BME280;33575;52.600;7.318;2023-11-21T03:41:33;100948.30;;;8.72;97.25
47811;BME280;33575;52.600;7.318;2023-11-21T03:44:04;100947.62;;;8.74;97.08
47811;BME280;33575;52.600;7.318;2023-11-21T03:46:34;100942.72;;;8.74;97.23
47811;BME280;33575;52.600;7.318;2023-11-21T03:49:05;100945.24;;;8.76;96.70
47811;BME280;33575;52.600;7.318;2023-11-21T03:51:35;100947.79;;;8.76;96.97
47811;BME280;33575;52.600;7.318;2023-11-21T03:54:06;100954.79;;;8.79;96.63
47811;BME280;33575;52.600;7.318;2023-11-21T03:56:36;100956.20;;;8.79;96.60
47811;BME280;33575;52.600;7.318;2023-11-21T03:59:06;100957.53;;;8.78;96.51
47811;BME280;33575;52.600;7.318;2023-11-21T04:01:36;100957.75;;;8.78;96.93
47811;BME280;33575;52.600;7.318;2023-11-21T04:04:07;100959.24;;;8.77;96.28
47811;BME280;33575;52.600;7.318;2023-11-21T04:06:37;100957.33;;;8.77;97.76
47811;BME280;33575;52.600;7.318;2023-11-21T04:09:07;100959.34;;;8.78;97.22
47811;BME280;33575;52.600;7.318;2023-11-21T04:11:38;100961.07;;;8.79;96.73
47811;BME280;33575;52.600;7.318;2023-11-21T04:14:09;100964.35;;;8.79;96.72
47811;BME280;33575;52.600;7.318;2023-11-21T04:16:40;100968.88;;;8.80;97.15
47811;BME280;33575;52.600;7.318;2023-11-21T04:19:10;100968.22;;;8.81;97.65
47811;BME280;33575;52.600;7.318;2023-11-21T04:21:41;100968.02;;;8.82;97.82
47811;BME280;33575;52.600;7.318;2023-11-21T04:24:11;100970.37;;;8.86;97.18
47811;BME280;33575;52.600;7.318;2023-11-21T04:26:43;100978.08;;;8.89;96.33
47811;BME280;33575;52.600;7.318;2023-11-21T04:29:12;100986.70;;;8.90;96.57
47811;BME280;33575;52.600;7.318;2023-11-21T04:31:42;100992.50;;;8.92;96.31
47811;BME280;33575;52.600;7.318;2023-11-21T04:34:12;100998.30;;;8.94;97.00
47811;BME280;33575;52.600;7.318;2023-11-21T04:36:43;100999.37;;;8.97;97.22
47811;BME280;33575;52.600;7.318;2023-11-21T04:39:13;101004.51;;;9.01;97.28
47811;BME280;33575;52.600;7.318;2023-11-21T04:41:43;101006.62;;;9.02;97.13
47811;BME280;33575;52.600;7.318;2023-11-21T04:44:14;101006.50;;;9.01;97.13
47811;BME280;33575;52.600;7.318;2023-11-21T04:46:44;101006.20;;;9.01;97.38
47811;BME280;33575;52.600;7.318;2023-11-21T04:49:14;101006.20;;;9.04;96.36
47811;BME280;33575;52.600;7.318;2023-11-21T04:51:45;101008.24;;;9.05;95.95
47811;BME280;33575;52.600;7.318;2023-11-21T04:54:15;101014.09;;;9.05;96.22
47811;BME280;33575;52.600;7.318;2023-11-21T04:56:46;101018.69;;;9.05;95.92
47811;BME280;33575;52.600;7.318;2023-11-21T04:59:16;101022.14;;;9.04;95.47
47811;BME280;33575;52.600;7.318;2023-11-21T05:01:46;101023.36;;;9.04;95.48
47811;BME280;33575;52.600;7.318;2023-11-21T05:04:17;101028.94;;;9.04;95.20
47811;BME280;33575;52.600;7.318;2023-11-21T05:06:47;101031.19;;;9.03;95.33
47811;BME280;33575;52.600;7.318;2023-11-21T05:09:18;101032.37;;;9.02;95.10
47811;BME280;33575;52.600;7.318;2023-11-21T05:11:48;101035.48;;;9.03;95.16
47811;BME280;33575;52.600;7.318;2023-11-21T05:14:19;101035.67;;;9.04;95.36
47811;BME280;33575;52.600;7.318;2023-11-21T05:16:50;101038.64;;;9.05;94.81
47811;BME280;33575;52.600;7.318;2023-11-21T05:19:20;101039.35;;;9.04;94.93
47811;BME280;33575;52.600;7.318;2023-11-21T05:21:51;101045.46;;;9.04;94.92
47811;BME280;33575;52.600;7.318;2023-11-21T05:24:21;101047.15;;;9.03;95.08
47811;BME280;33575;52.600;7.318;2023-11-21T05:26:51;101050.56;;;9.04;95.11
47811;BME280;33575;52.600;7.318;2023-11-21T05:29:22;101058.29;;;9.04;95.32
47811;BME280;33575;52.600;7.318;2023-11-21T05:31:52;101063.58;;;9.02;95.29
47811;BME280;33575;52.600;7.318;2023-11-21T05:34:23;101071.26;;;9.01;95.46
47811;BME280;33575;52.600;7.318;2023-11-21T05:36:53;101072.02;;;9.01;96.17
47811;BME280;33575;52.600;7.318;2023-11-21T05:39:23;101074.96;;;9.08;96.91
47811;BME280;33575;52.600;7.318;2023-11-21T05:41:54;101077.51;;;9.14;97.67
47811;BME280;33575;52.600;7.318;2023-11-21T05:44:25;101082.51;;;9.18;96.71
47811;BME280;33575;52.600;7.318;2023-11-21T05:46:55;101091.25;;;9.15;95.53
47811;BME280;33575;52.600;7.318;2023-11-21T05:49:25;101099.10;;;9.06;94.82
47811;BME280;33575;52.600;7.318;2023-11-21T05:51:56;101107.28;;;8.83;94.29
47811;BME280;33575;52.600;7.318;2023-11-21T05:54:26;101112.21;;;8.70;94.23
47811;BME280;33575;52.600;7.318;2023-11-21T05:56:56;101115.58;;;8.60;94.26
47811;BME280;33575;52.600;7.318;2023-11-21T05:59:27;101117.36;;;8.51;94.71
47811;BME280;33575;52.600;7.318;2023-11-21T06:01:58;101119.23;;;8.49;94.68
47811;BME280;33575;52.600;7.318;2023-11-21T06:04:28;101124.59;;;8.49;95.06
47811;BME280;33575;52.600;7.318;2023-11-21T06:06:59;101130.90;;;8.57;96.25
47811;BME280;33575;52.600;7.318;2023-11-21T06:09:28;101133.83;;;8.68;96.08
47811;BME280;33575;52.600;7.318;2023-11-21T06:11:59;101137.40;;;8.75;95.94
47811;BME280;33575;52.600;7.318;2023-11-21T06:14:30;101140.04;;;8.82;96.05
47811;BME280;33575;52.600;7.318;2023-11-21T06:17:00;101148.03;;;8.85;95.79
47811;BME280;33575;52.600;7.318;2023-11-21T06:19:31;101152.20;;;8.83;95.68
47811;BME280;33575;52.600;7.318;2023-11-21T06:22:01;101152.86;;;8.80;95.59
47811;BME280;33575;52.600;7.318;2023-11-21T06:24:32;101156.88;;;8.75;96.02
47811;BME280;33575;52.600;7.318;2023-11-21T06:27:03;101163.40;;;8.73;95.77
47811;BME280;33575;52.600;7.318;2023-11-21T06:29:32;101170.87;;;8.67;95.84
47811;BME280;33575;52.600;7.318;2023-11-21T06:32:03;101173.06;;;8.66;95.86
47811;BME280;33575;52.600;7.318;2023-11-21T06:34:33;101181.19;;;8.66;96.03
47811;BME280;33575;52.600;7.318;2023-11-21T06:37:03;101179.05;;;8.63;96.42
47811;BME280;33575;52.600;7.318;2023-11-21T06:39:33;101184.91;;;8.62;96.58
47811;BME280;33575;52.600;7.318;2023-11-21T06:42:05;101187.58;;;8.62;96.84
47811;BME280;33575;52.600;7.318;2023-11-21T06:44:35;101193.04;;;8.59;96.64
47811;BME280;33575;52.600;7.318;2023-11-21T06:47:06;101197.64;;;8.59;96.30
47811;BME280;33575;52.600;7.318;2023-11-21T06:49:36;101200.16;;;8.58;96.68
47811;BME280;33575;52.600;7.318;2023-11-21T06:52:07;101204.41;;;8.62;96.45
47811;BME280;33575;52.600;7.318;2023-11-21T06:54:37;101209.27;;;8.65;96.25
47811;BME280;33575;52.600;7.318;2023-11-21T06:57:07;101210.67;;;8.67;96.53
47811;BME280;33575;52.600;7.318;2023-11-21T06:59:37;101209.23;;;8.63;96.28
47811;BME280;33575;52.600;7.318;2023-11-21T07:02:08;101211.02;;;8.63;96.37
47811;BME280;33575;52.600;7.318;2023-11-21T07:04:38;101214.56;;;8.68;96.47
47811;BME280;33575;52.600;7.318;2023-11-21T07:07:08;101217.93;;;8.71;96.67
47811;BME280;33575;52.600;7.318;2023-11-21T07:09:38;101220.60;;;8.72;96.84
47811;BME280;33575;52.600;7.318;2023-11-21T07:12:09;101229.63;;;8.72;97.69
47811;BME280;33575;52.600;7.318;2023-11-21T07:14:39;101231.92;;;8.70;97.56
47811;BME280;33575;52.600;7.318;2023-11-21T07:17:10;101232.23;;;8.69;97.28
47811;BME280;33575;52.600;7.318;2023-11-21T07:19:40;101232.83;;;8.67;96.75
47811;BME280;33575;52.600;7.318;2023-11-21T07:22:10;101235.48;;;8.68;96.30
47811;BME280;33575;52.600;7.318;2023-11-21T07:24:40;101238.91;;;8.69;96.58
47811;BME280;33575;52.600;7.318;2023-11-21T07:27:11;101246.40;;;8.70;96.52
47811;BME280;33575;52.600;7.318;2023-11-21T07:29:41;101253.05;;;8.69;96.47
47811;BME280;33575;52.600;7.318;2023-11-21T07:32:11;101255.80;;;8.66;96.70
47811;BME280;33575;52.600;7.318;2023-11-21T07:34:42;101261.78;;;8.68;96.92
47811;BME280;33575;52.600;7.318;2023-11-21T07:37:12;101271.25;;;8.69;97.83
47811;BME280;33575;52.600;7.318;2023-11-21T07:39:44;101276.13;;;8.67;96.79
47811;BME280;33575;52.600;7.318;2023-11-21T07:42:14;101281.10;;;8.66;100.00
47811;BME280;33575;52.600;7.318;2023-11-21T07:44:44;101289.40;;;8.77;100.00
47811;BME280;33575;52.600;7.318;2023-11-21T07:47:15;101296.62;;;8.86;100.00
47811;BME280;33575;52.600;7.318;2023-11-21T07:49:46;101298.34;;;8.89;100.00
47811;BME280;33575;52.600;7.318;2023-11-21T07:52:16;101301.28;;;8.89;100.00
47811;BME280;33575;52.600;7.318;2023-11-21T07:54:46;101304.01;;;8.86;100.00
47811;BME280;33575;52.600;7.318;2023-11-21T07:57:16;101311.64;;;8.86;100.00
47811;BME280;33575;52.600;7.318;2023-11-21T07:59:46;101315.24;;;8.86;100.00
47811;BME280;33575;52.600;7.318;2023-11-21T08:02:17;101319.30;;;8.86;100.00
47811;BME280;33575;52.600;7.318;2023-11-21T08:04:47;101324.09;;;8.89;100.00
47811;BME280;33575;52.600;7.318;2023-11-21T08:07:18;101327.50;;;8.90;100.00
47811;BME280;33575;52.600;7.318;2023-11-21T08:09:48;101330.13;;;8.88;100.00
47811;BME280;33575;52.600;7.318;2023-11-21T08:12:18;101332.37;;;8.86;99.64
47811;BME280;33575;52.600;7.318;2023-11-21T08:14:48;101335.32;;;8.83;99.85
47811;BME280;33575;52.600;7.318;2023-11-21T08:17:19;101337.25;;;8.83;99.75
47811;BME280;33575;52.600;7.318;2023-11-21T08:19:49;101342.01;;;8.82;99.42
47811;BME280;33575;52.600;7.318;2023-11-21T08:22:19;101344.81;;;8.83;99.59
47811;BME280;33575;52.600;7.318;2023-11-21T08:24:50;101347.09;;;8.84;100.00
47811;BME280;33575;52.600;7.318;2023-11-21T08:27:20;101352.04;;;8.84;100.00
47811;BME280;33575;52.600;7.318;2023-11-21T08:29:51;101359.09;;;8.85;99.75
47811;BME280;33575;52.600;7.318;2023-11-21T08:32:21;101363.14;;;8.87;100.00
47811;BME280;33575;52.600;7.318;2023-11-21T08:34:54;101364.09;;;8.86;100.00
47811;BME280;33575;52.600;7.318;2023-11-21T08:37:21;101363.89;;;8.85;100.00
47811;BME280;33575;52.600;7.318;2023-11-21T08:39:52;101369.13;;;8.86;100.00
47811;BME280;33575;52.600;7.318;2023-11-21T08:42:23;101368.18;;;8.90;100.00
47811;BME280;33575;52.600;7.318;2023-11-21T08:44:53;101373.20;;;8.96;100.00
47811;BME280;33575;52.600;7.318;2023-11-21T08:47:24;101380.04;;;9.01;100.00
47811;BME280;33575;52.600;7.318;2023-11-21T08:49:55;101385.47;;;8.96;99.95
47811;BME280;33575;52.600;7.318;2023-11-21T08:52:26;101386.19;;;8.94;100.00
47811;BME280;33575;52.600;7.318;2023-11-21T08:54:56;101390.15;;;8.89;100.00
47811;BME280;33575;52.600;7.318;2023-11-21T08:57:27;101393.63;;;8.82;99.92
47811;BME280;33575;52.600;7.318;2023-11-21T08:59:57;101398.38;;;8.83;100.00
47811;BME280;33575;52.600;7.318;2023-11-21T09:02:28;101404.71;;;8.75;100.00
47811;BME280;33575;52.600;7.318;2023-11-21T09:04:58;101407.74;;;8.78;100.00
47811;BME280;33575;52.600;7.318;2023-11-21T09:07:28;101411.05;;;8.75;100.00
47811;BME280;33575;52.600;7.318;2023-11-21T09:09:58;101413.04;;;8.74;100.00
47811;BME280;33575;52.600;7.318;2023-11-21T09:12:29;101416.56;;;8.73;100.00
47811;BME280;33575;52.600;7.318;2023-11-21T09:15:00;101422.36;;;8.76;100.00
47811;BME280;33575;52.600;7.318;2023-11-21T09:17:30;101427.88;;;8.65;100.00
47811;BME280;33575;52.600;7.318;2023-11-21T09:20:01;101429.21;;;8.63;100.00
47811;BME280;33575;52.600;7.318;2023-11-21T09:22:31;101430.74;;;8.62;100.00
47811;BME280;33575;52.600;7.318;2023-11-21T09:25:01;101433.60;;;8.65;100.00
47811;BME280;33575;52.600;7.318;2023-11-21T09:27:32;101443.76;;;8.62;100.00
47811;BME280;33575;52.600;7.318;2023-11-21T09:30:03;101447.36;;;8.54;100.00
47811;BME280;33575;52.600;7.318;2023-11-21T09:32:33;101448.93;;;8.52;100.00
47811;BME280;33575;52.600;7.318;2023-11-21T09:35:05;101455.95;;;8.26;100.00
47811;BME280;33575;52.600;7.318;2023-11-21T09:37:34;101462.31;;;8.29;100.00
47811;BME280;33575;52.600;7.318;2023-11-21T09:40:08;101467.42;;;8.31;100.00
47811;BME280;33575;52.600;7.318;2023-11-21T09:42:38;101469.13;;;8.21;100.00
47811;BME280;33575;52.600;7.318;2023-11-21T09:45:11;101474.77;;;8.20;100.00
47811;BME280;33575;52.600;7.318;2023-11-21T09:47:38;101478.13;;;8.24;100.00
47811;BME280;33575;52.600;7.318;2023-11-21T09:50:07;101477.84;;;8.26;100.00
47811;BME280;33575;52.600;7.318;2023-11-21T09:52:41;101484.21;;;8.18;100.00
47811;BME280;33575;52.600;7.318;2023-11-21T09:55:07;101490.11;;;8.19;100.00
47811;BME280;33575;52.600;7.318;2023-11-21T09:57:37;101495.41;;;8.18;100.00
47811;BME280;33575;52.600;7.318;2023-11-21T10:00:09;101495.92;;;8.14;100.00
47811;BME280;33575;52.600;7.318;2023-11-21T10:02:39;101498.14;;;8.11;100.00
47811;BME280;33575;52.600;7.318;2023-11-21T10:05:09;101499.85;;;8.09;100.00
47811;BME280;33575;52.600;7.318;2023-11-21T10:07:39;101505.58;;;8.09;100.00
47811;BME280;33575;52.600;7.318;2023-11-21T10:10:10;101510.39;;;8.18;100.00
47811;BME280;33575;52.600;7.318;2023-11-21T10:12:42;101521.09;;;8.04;100.00
47811;BME280;33575;52.600;7.318;2023-11-21T10:15:11;101527.09;;;8.01;100.00
47811;BME280;33575;52.600;7.318;2023-11-21T10:17:41;101531.79;;;8.00;100.00
47811;BME280;33575;52.600;7.318;2023-11-21T10:20:11;101535.58;;;8.02;100.00
47811;BME280;33575;52.600;7.318;2023-11-21T10:22:42;101541.42;;;8.00;100.00
47811;BME280;33575;52.600;7.318;2023-11-21T10:25:13;101542.38;;;7.96;100.00
47811;BME280;33575;52.600;7.318;2023-11-21T10:27:42;101543.39;;;7.99;100.00
47811;BME280;33575;52.600;7.318;2023-11-21T10:30:13;101543.32;;;7.99;100.00
47811;BME280;33575;52.600;7.318;2023-11-21T10:32:44;101543.21;;;7.99;99.89
47811;BME280;33575;52.600;7.318;2023-11-21T10:35:14;101542.73;;;8.03;100.00
47811;BME280;33575;52.600;7.318;2023-11-21T10:37:44;101547.41;;;8.02;100.00
47811;BME280;33575;52.600;7.318;2023-11-21T10:40:15;101548.42;;;8.09;99.11
47811;BME280;33575;52.600;7.318;2023-11-21T10:42:45;101558.26;;;8.08;100.00
47811;BME280;33575;52.600;7.318;2023-11-21T10:45:15;101559.27;;;7.94;100.00
47811;BME280;33575;52.600;7.318;2023-11-21T10:47:46;101561.60;;;7.88;99.55
47811;BME280;33575;52.600;7.318;2023-11-21T10:50:18;101572.09;;;7.86;99.65
47811;BME280;33575;52.600;7.318;2023-11-21T10:52:47;101584.34;;;7.70;100.00
47811;BME280;33575;52.600;7.318;2023-11-21T10:55:18;101587.47;;;7.67;100.00
47811;BME280;33575;52.600;7.318;2023-11-21T10:57:49;101586.19;;;7.63;99.50
47811;BME280;33575;52.600;7.318;2023-11-21T11:00:19;101581.82;;;7.64;99.38
47811;BME280;33575;52.600;7.318;2023-11-21T11:02:51;101579.19;;;7.71;98.26
47811;BME280;33575;52.600;7.318;2023-11-21T11:05:21;101575.03;;;7.72;100.00
47811;BME280;33575;52.600;7.318;2023-11-21T11:07:51;101578.33;;;7.76;98.63
47811;BME280;33575;52.600;7.318;2023-11-21T11:10:21;101571.05;;;7.74;100.00
47811;BME280;33575;52.600;7.318;2023-11-21T11:12:51;101577.76;;;7.75;99.60
47811;BME280;33575;52.600;7.318;2023-11-21T11:15:21;101595.49;;;7.71;99.07
47811;BME280;33575;52.600;7.318;2023-11-21T11:17:52;101602.27;;;7.70;98.36
47811;BME280;33575;52.600;7.318;2023-11-21T11:20:24;101606.99;;;7.64;97.59
47811;BME280;33575;52.600;7.318;2023-11-21T11:23:11;101611.15;;;7.59;100.00
47811;BME280;33575;52.600;7.318;2023-11-21T11:25:31;101608.20;;;7.65;98.48
47811;BME280;33575;52.600;7.318;2023-11-21T11:27:59;101605.74;;;7.60;97.70
47811;BME280;33575;52.600;7.318;2023-11-21T11:30:36;101612.34;;;7.60;97.18
47811;BME280;33575;52.600;7.318;2023-11-21T11:33:01;101618.93;;;7.64;99.43
47811;BME280;33575;52.600;7.318;2023-11-21T11:35:31;101621.74;;;7.69;98.73
47811;BME280;33575;52.600;7.318;2023-11-21T11:37:55;101626.01;;;7.71;98.25
47811;BME280;33575;52.600;7.318;2023-11-21T11:42:56;101620.25;;;7.77;99.36
47811;BME280;33575;52.600;7.318;2023-11-21T11:45:32;101623.02;;;7.77;98.75
47811;BME280;33575;52.600;7.318;2023-11-21T11:47:57;101627.20;;;7.79;97.86
47811;BME280;33575;52.600;7.318;2023-11-21T11:50:27;101631.15;;;7.84;98.36
47811;BME280;33575;52.600;7.318;2023-11-21T11:55:27;101639.11;;;7.87;99.48
47811;BME280;33575;52.600;7.318;2023-11-21T11:57:58;101645.17;;;7.97;99.64
47811;BME280;33575;52.600;7.318;2023-11-21T12:00:34;101650.89;;;8.01;98.66
47811;BME280;33575;52.600;7.318;2023-11-21T12:03:01;101656.12;;;8.03;98.78
47811;BME280;33575;52.600;7.318;2023-11-21T12:05:31;101656.38;;;8.01;98.79
47811;BME280;33575;52.600;7.318;2023-11-21T12:08:02;101664.25;;;7.94;95.56
47811;BME280;33575;52.600;7.318;2023-11-21T12:10:32;101664.24;;;7.87;94.49
47811;BME280;33575;52.600;7.318;2023-11-21T12:13:05;101666.78;;;7.84;96.26
47811;BME280;33575;52.600;7.318;2023-11-21T12:15:31;101670.61;;;7.81;94.96
47811;BME280;33575;52.600;7.318;2023-11-21T12:18:02;101673.08;;;7.66;93.82
47811;BME280;33575;52.600;7.318;2023-11-21T12:20:32;101673.59;;;7.61;94.93
47811;BME280;33575;52.600;7.318;2023-11-21T12:23:02;101678.79;;;7.53;95.69
47811;BME280;33575;52.600;7.318;2023-11-21T12:25:33;101682.95;;;7.54;96.41
47811;BME280;33575;52.600;7.318;2023-11-21T12:28:03;101684.66;;;7.53;97.18
47811;BME280;33575;52.600;7.318;2023-11-21T12:30:35;101688.78;;;7.52;96.59
47811;BME280;33575;52.600;7.318;2023-11-21T12:33:04;101691.85;;;7.50;95.80
47811;BME280;33575;52.600;7.318;2023-11-21T12:35:35;101686.82;;;7.56;96.25
47811;BME280;33575;52.600;7.318;2023-11-21T12:38:04;101690.22;;;7.54;96.55
47811;BME280;33575;52.600;7.318;2023-11-21T12:40:35;101698.65;;;7.56;96.04
47811;BME280;33575;52.600;7.318;2023-11-21T12:43:07;101698.58;;;7.49;95.81
47811;BME280;33575;52.600;7.318;2023-11-21T12:45:36;101704.59;;;7.51;95.59
47811;BME280;33575;52.600;7.318;2023-11-21T12:48:06;101702.54;;;7.52;95.43
47811;BME280;33575;52.600;7.318;2023-11-21T12:50:38;101706.52;;;7.51;97.07
47811;BME280;33575;52.600;7.318;2023-11-21T12:53:09;101712.78;;;7.49;95.66
47811;BME280;33575;52.600;7.318;2023-11-21T12:55:38;101719.82;;;7.59;95.60
47811;BME280;33575;52.600;7.318;2023-11-21T12:58:09;101725.72;;;7.66;95.31
47811;BME280;33575;52.600;7.318;2023-11-21T13:00:40;101729.98;;;7.70;95.67
47811;BME280;33575;52.600;7.318;2023-11-21T13:03:09;101732.45;;;7.74;94.13
47811;BME280;33575;52.600;7.318;2023-11-21T13:05:40;101738.07;;;7.66;91.99
47811;BME280;33575;52.600;7.318;2023-11-21T13:08:09;101738.74;;;7.54;92.10
47811;BME280;33575;52.600;7.318;2023-11-21T13:10:41;101740.94;;;7.34;92.40
47811;BME280;33575;52.600;7.318;2023-11-21T13:13:11;101740.63;;;7.19;93.58
47811;BME280;33575;52.600;7.318;2023-11-21T13:15:46;101742.79;;;7.01;96.63
47811;BME280;33575;52.600;7.318;2023-11-21T13:18:11;101743.66;;;6.96;97.69